ASN logo
Accident
Last updated: 19 October 2017
Statuts:Enquête Préliminaire
Date:dimanche 28 octobre 2007
Heure:02:07
Type/Sous-type:Silhouette image of generic B738 model; specific model in this crash may look slightly different
Boeing 737-85P
Compagnie:Air Europa
Immatriculation: EC-HBM
Numéro de série: 28382/256
Année de Fabrication: 1999-04-10 (8 years 7 months)
Moteurs: 2 CFMI CFM56-7B26
Equipage:victimes: 0 / à bord: 8
Passagers:victimes: 0 / à bord: 114
Total:victimes: 0 / à bord: 122
Dégats de l'appareil: Substantiels
Conséquences: Repaired
Lieu de l'accident:Katowice-Pyrzowice Airport (KTW) (   Pologne)
Phase de vol: En approche (APR)
Nature:Charter International
Aéroport de départ:Beirut Airport (BEY/OLBA), Liban
Aéroport de destination:Katowice-Pyrzowice Airport (KTW/EPKT), Pologne
Détails:
The Air Europa Boeing 737 sustained damage when it impacted approach lights before landing at Katowice, Poland.
The aircraft operated on a flight from Beirut, Lebanon. The first officer was pilot flying. Weather at destination Katowice was below minima as the flight began its descent to the airport. The flight was cleared for a LOC/ILS approach to runway 27. The glide path was intercepted 5.4 miles before the runway threshold, and 3 dots above the glide slope.
This forced the crew to execute a high speed descent at about 1600 to 1800 ft/min, which was more than twice the limit required for a stabilized ILS approach. The whole approach was performed with the autopilot engaged. The aircraft crossed the glide path at decision height. Due to the high speed of the descent the autopilot did not intercept the ILS signal, and the aircraft continued its descent. At this point the EGPWS alarm sounded, and a moment later the captain took over control. The plane then impacted the second row of lights of the approach light system, destroying the remaining lights at a distance of about 850 meters before the runway threshold. The aircraft landed safely, but sustained damage to the no. 1 engine and flap fairings.

Accident investigation:
cover
Investigating agency: SCAAI Poland
Status: Investigation ongoing
Accident number: 466/07
Download report: Preliminary report

Sources:
» Boeing skosil swiatla na lotnisku w Pyrzowicach (Gazeta.pl, 28-10-2007)

METAR Weather report:
02:00 UTC / local time:
EPKT 280200Z VRB02KT 0300 R27/0500 R09/0600 FG BKN001 08/08 Q1027

02:30 UTC / local time:
EPKT 280230Z 00000KT 0300 R27/0500 R09/1000 FG BKN001 08/08 Q1027

03:00 UTC / local time:
EPKT 280300Z VRB02KT 0400 R27/0500 R09/1000 FG SCT002 BKN005 08/08 Q1027


Photos

Add your photo of this accident or aircraft

Plan
Ce plan montre l'aéroport de départ ainsi que la supposée destination du vol. La ligne fixe reliant les deux aéroports n'est pas le plan de vol exact.
La distance entre Beirut Airport et Katowice-Pyrzowice Airport est de 2267 km (1417 miles).
Accident location: Approximate; accuracy within a few kilometers.

Les informations ci-dessus ne représentent pas l'opinion de la 'Flight Safety Foundation' ou de 'Aviation Safety Network' sur les causes de l'accident. Ces informations prélimimaires sont basées sur les faits tel qu'ils sont connus à ce jour.
languages: languages

Share